sensor_id;sensor_type;location;lat;lon;timestamp;temperature;humidity
25963;DHT22;13760;52.588;13.406;2023-04-24T00:00:06;10.60;99.90
25963;DHT22;13760;52.588;13.406;2023-04-24T00:02:34;10.60;99.90
25963;DHT22;13760;52.588;13.406;2023-04-24T00:05:00;10.50;99.90
25963;DHT22;13760;52.588;13.406;2023-04-24T00:07:28;10.50;99.90
25963;DHT22;13760;52.588;13.406;2023-04-24T00:09:54;10.50;99.90
25963;DHT22;13760;52.588;13.406;2023-04-24T00:12:20;10.50;99.90
25963;DHT22;13760;52.588;13.406;2023-04-24T00:14:46;10.50;99.90
25963;DHT22;13760;52.588;13.406;2023-04-24T00:17:11;10.50;99.90
25963;DHT22;13760;52.588;13.406;2023-04-24T00:19:37;10.40;99.90
25963;DHT22;13760;52.588;13.406;2023-04-24T00:22:03;10.40;99.90
25963;DHT22;13760;52.588;13.406;2023-04-24T00:24:28;10.40;99.90
25963;DHT22;13760;52.588;13.406;2023-04-24T00:26:54;10.40;99.90
25963;DHT22;13760;52.588;13.406;2023-04-24T00:29:20;10.40;99.90
25963;DHT22;13760;52.588;13.406;2023-04-24T00:31:45;10.40;99.90
25963;DHT22;13760;52.588;13.406;2023-04-24T00:34:11;10.40;99.90
25963;DHT22;13760;52.588;13.406;2023-04-24T00:36:37;10.40;99.90
25963;DHT22;13760;52.588;13.406;2023-04-24T00:39:03;10.40;99.90
25963;DHT22;13760;52.588;13.406;2023-04-24T00:41:29;10.40;99.90
25963;DHT22;13760;52.588;13.406;2023-04-24T00:43:55;10.40;99.90
25963;DHT22;13760;52.588;13.406;2023-04-24T00:46:21;10.40;99.90
25963;DHT22;13760;52.588;13.406;2023-04-24T00:48:46;10.40;99.90
25963;DHT22;13760;52.588;13.406;2023-04-24T00:51:12;10.40;99.90
25963;DHT22;13760;52.588;13.406;2023-04-24T00:53:38;10.40;99.90
25963;DHT22;13760;52.588;13.406;2023-04-24T00:56:04;10.40;99.90
25963;DHT22;13760;52.588;13.406;2023-04-24T00:58:31;10.50;99.90
25963;DHT22;13760;52.588;13.406;2023-04-24T01:00:57;10.50;99.90
25963;DHT22;13760;52.588;13.406;2023-04-24T01:03:26;10.50;99.90
25963;DHT22;13760;52.588;13.406;2023-04-24T01:05:54;10.60;99.90
25963;DHT22;13760;52.588;13.406;2023-04-24T01:08:23;10.50;99.90
25963;DHT22;13760;52.588;13.406;2023-04-24T01:10:51;10.50;99.90
25963;DHT22;13760;52.588;13.406;2023-04-24T01:13:17;10.60;99.90
25963;DHT22;13760;52.588;13.406;2023-04-24T01:15:43;10.60;99.90
25963;DHT22;13760;52.588;13.406;2023-04-24T01:18:09;10.60;99.90
25963;DHT22;13760;52.588;13.406;2023-04-24T01:20:35;10.60;99.90
25963;DHT22;13760;52.588;13.406;2023-04-24T01:23:05;10.60;99.90
25963;DHT22;13760;52.588;13.406;2023-04-24T01:25:31;10.60;99.90
25963;DHT22;13760;52.588;13.406;2023-04-24T01:27:57;10.60;99.90
25963;DHT22;13760;52.588;13.406;2023-04-24T01:30:24;10.70;99.90
25963;DHT22;13760;52.588;13.406;2023-04-24T01:32:50;10.70;99.90
25963;DHT22;13760;52.588;13.406;2023-04-24T01:35:19;10.70;99.90
25963;DHT22;13760;52.588;13.406;2023-04-24T01:37:45;10.70;99.90
25963;DHT22;13760;52.588;13.406;2023-04-24T01:40:11;10.70;99.90
25963;DHT22;13760;52.588;13.406;2023-04-24T01:42:36;10.80;99.90
25963;DHT22;13760;52.588;13.406;2023-04-24T01:45:03;10.80;99.90
25963;DHT22;13760;52.588;13.406;2023-04-24T01:47:30;10.80;99.90
25963;DHT22;13760;52.588;13.406;2023-04-24T01:49:56;10.80;99.90
25963;DHT22;13760;52.588;13.406;2023-04-24T01:52:22;10.90;99.90
25963;DHT22;13760;52.588;13.406;2023-04-24T01:54:48;10.90;99.90
25963;DHT22;13760;52.588;13.406;2023-04-24T01:57:14;11.00;99.90
25963;DHT22;13760;52.588;13.406;2023-04-24T01:59:40;11.00;99.90
25963;DHT22;13760;52.588;13.406;2023-04-24T02:02:05;11.00;99.90
25963;DHT22;13760;52.588;13.406;2023-04-24T02:04:32;11.10;99.90
25963;DHT22;13760;52.588;13.406;2023-04-24T02:06:58;11.10;99.90
25963;DHT22;13760;52.588;13.406;2023-04-24T02:09:24;11.10;99.90
25963;DHT22;13760;52.588;13.406;2023-04-24T02:11:50;11.10;99.90
25963;DHT22;13760;52.588;13.406;2023-04-24T02:14:15;11.10;99.90
25963;DHT22;13760;52.588;13.406;2023-04-24T02:16:41;11.00;99.90
25963;DHT22;13760;52.588;13.406;2023-04-24T02:19:07;11.00;99.90
25963;DHT22;13760;52.588;13.406;2023-04-24T02:21:32;11.00;99.90
25963;DHT22;13760;52.588;13.406;2023-04-24T02:23:58;11.00;99.90
25963;DHT22;13760;52.588;13.406;2023-04-24T02:26:23;11.00;99.90
25963;DHT22;13760;52.588;13.406;2023-04-24T02:28:49;11.00;99.90
25963;DHT22;13760;52.588;13.406;2023-04-24T02:31:15;11.00;99.90
25963;DHT22;13760;52.588;13.406;2023-04-24T02:33:40;11.00;99.90
25963;DHT22;13760;52.588;13.406;2023-04-24T02:36:06;11.00;99.90
25963;DHT22;13760;52.588;13.406;2023-04-24T02:38:31;10.90;99.90
25963;DHT22;13760;52.588;13.406;2023-04-24T02:40:57;10.90;99.90
25963;DHT22;13760;52.588;13.406;2023-04-24T02:43:22;11.00;99.90
25963;DHT22;13760;52.588;13.406;2023-04-24T02:45:48;10.90;99.90
25963;DHT22;13760;52.588;13.406;2023-04-24T02:48:14;10.90;99.90
25963;DHT22;13760;52.588;13.406;2023-04-24T02:50:40;11.00;99.90
25963;DHT22;13760;52.588;13.406;2023-04-24T02:53:05;11.00;99.90
25963;DHT22;13760;52.588;13.406;2023-04-24T02:55:31;11.00;99.90
25963;DHT22;13760;52.588;13.406;2023-04-24T02:57:57;11.00;99.90
25963;DHT22;13760;52.588;13.406;2023-04-24T03:00:22;11.00;99.90
25963;DHT22;13760;52.588;13.406;2023-04-24T03:02:48;11.00;99.90
25963;DHT22;13760;52.588;13.406;2023-04-24T03:05:15;11.00;99.90
25963;DHT22;13760;52.588;13.406;2023-04-24T03:07:40;11.00;99.90
25963;DHT22;13760;52.588;13.406;2023-04-24T03:10:07;11.00;99.90
25963;DHT22;13760;52.588;13.406;2023-04-24T03:12:32;11.10;99.90
25963;DHT22;13760;52.588;13.406;2023-04-24T03:14:58;11.10;99.90
25963;DHT22;13760;52.588;13.406;2023-04-24T03:17:24;11.10;99.90
25963;DHT22;13760;52.588;13.406;2023-04-24T03:19:49;11.10;99.90
25963;DHT22;13760;52.588;13.406;2023-04-24T03:22:15;11.10;99.90
25963;DHT22;13760;52.588;13.406;2023-04-24T03:24:41;11.10;99.90
25963;DHT22;13760;52.588;13.406;2023-04-24T03:27:06;11.20;99.90
25963;DHT22;13760;52.588;13.406;2023-04-24T03:29:32;11.20;99.90
25963;DHT22;13760;52.588;13.406;2023-04-24T03:31:57;11.20;99.90
25963;DHT22;13760;52.588;13.406;2023-04-24T03:34:23;11.30;99.90
25963;DHT22;13760;52.588;13.406;2023-04-24T03:36:48;11.30;99.90
25963;DHT22;13760;52.588;13.406;2023-04-24T03:39:14;11.40;99.90
25963;DHT22;13760;52.588;13.406;2023-04-24T03:41:39;11.40;99.90
25963;DHT22;13760;52.588;13.406;2023-04-24T03:44:05;11.50;99.90
25963;DHT22;13760;52.588;13.406;2023-04-24T03:46:31;11.50;99.90
25963;DHT22;13760;52.588;13.406;2023-04-24T03:48:56;11.50;99.90
25963;DHT22;13760;52.588;13.406;2023-04-24T03:51:22;11.50;99.90
25963;DHT22;13760;52.588;13.406;2023-04-24T03:53:48;11.50;99.90
25963;DHT22;13760;52.588;13.406;2023-04-24T03:56:14;11.50;99.90
25963;DHT22;13760;52.588;13.406;2023-04-24T03:58:40;11.50;99.90
25963;DHT22;13760;52.588;13.406;2023-04-24T04:01:06;11.60;99.90
25963;DHT22;13760;52.588;13.406;2023-04-24T04:03:31;11.60;99.90
25963;DHT22;13760;52.588;13.406;2023-04-24T04:05:57;11.50;99.90
25963;DHT22;13760;52.588;13.406;2023-04-24T04:08:26;11.60;99.90
25963;DHT22;13760;52.588;13.406;2023-04-24T04:10:51;11.60;99.90
25963;DHT22;13760;52.588;13.406;2023-04-24T04:13:17;11.60;99.90
25963;DHT22;13760;52.588;13.406;2023-04-24T04:15:42;11.60;99.90
25963;DHT22;13760;52.588;13.406;2023-04-24T04:18:08;11.60;99.90
25963;DHT22;13760;52.588;13.406;2023-04-24T04:20:34;11.60;99.90
25963;DHT22;13760;52.588;13.406;2023-04-24T04:22:59;11.60;99.90
25963;DHT22;13760;52.588;13.406;2023-04-24T04:25:25;11.60;99.90
25963;DHT22;13760;52.588;13.406;2023-04-24T04:27:53;11.60;99.90
25963;DHT22;13760;52.588;13.406;2023-04-24T04:30:21;11.60;99.90
25963;DHT22;13760;52.588;13.406;2023-04-24T04:32:47;11.60;99.90
25963;DHT22;13760;52.588;13.406;2023-04-24T04:35:12;11.60;99.90
25963;DHT22;13760;52.588;13.406;2023-04-24T04:37:38;11.70;99.90
25963;DHT22;13760;52.588;13.406;2023-04-24T04:40:05;11.70;99.90
25963;DHT22;13760;52.588;13.406;2023-04-24T04:42:35;11.70;99.90
25963;DHT22;13760;52.588;13.406;2023-04-24T04:45:00;11.70;99.90
25963;DHT22;13760;52.588;13.406;2023-04-24T04:47:27;11.70;99.90
25963;DHT22;13760;52.588;13.406;2023-04-24T04:49:57;11.70;99.90
25963;DHT22;13760;52.588;13.406;2023-04-24T04:52:25;11.80;99.90
25963;DHT22;13760;52.588;13.406;2023-04-24T04:54:54;11.80;99.90
25963;DHT22;13760;52.588;13.406;2023-04-24T04:57:19;11.80;99.90
25963;DHT22;13760;52.588;13.406;2023-04-24T04:59:45;11.80;99.90
25963;DHT22;13760;52.588;13.406;2023-04-24T05:02:11;11.90;99.90
25963;DHT22;13760;52.588;13.406;2023-04-24T05:04:37;11.90;99.90
25963;DHT22;13760;52.588;13.406;2023-04-24T05:07:03;11.90;99.90
25963;DHT22;13760;52.588;13.406;2023-04-24T05:09:29;12.00;99.90
25963;DHT22;13760;52.588;13.406;2023-04-24T05:11:55;12.00;99.90
25963;DHT22;13760;52.588;13.406;2023-04-24T05:14:22;12.10;99.90
25963;DHT22;13760;52.588;13.406;2023-04-24T05:16:49;12.10;99.90
25963;DHT22;13760;52.588;13.406;2023-04-24T05:19:18;12.10;99.90
25963;DHT22;13760;52.588;13.406;2023-04-24T05:21:44;12.20;99.90
25963;DHT22;13760;52.588;13.406;2023-04-24T05:24:12;12.20;99.90
25963;DHT22;13760;52.588;13.406;2023-04-24T05:26:38;12.30;99.90
25963;DHT22;13760;52.588;13.406;2023-04-24T05:29:03;12.30;99.90
25963;DHT22;13760;52.588;13.406;2023-04-24T05:31:29;12.30;99.90
25963;DHT22;13760;52.588;13.406;2023-04-24T05:33:55;12.30;99.90
25963;DHT22;13760;52.588;13.406;2023-04-24T05:36:20;12.40;99.90
25963;DHT22;13760;52.588;13.406;2023-04-24T05:38:46;12.40;99.90
25963;DHT22;13760;52.588;13.406;2023-04-24T05:41:11;12.50;99.90
25963;DHT22;13760;52.588;13.406;2023-04-24T05:43:37;12.50;99.90
25963;DHT22;13760;52.588;13.406;2023-04-24T05:46:02;12.50;99.90
25963;DHT22;13760;52.588;13.406;2023-04-24T05:48:28;12.60;99.90
25963;DHT22;13760;52.588;13.406;2023-04-24T05:50:54;12.60;99.90
25963;DHT22;13760;52.588;13.406;2023-04-24T05:53:19;12.60;99.90
25963;DHT22;13760;52.588;13.406;2023-04-24T05:55:45;12.60;99.90
25963;DHT22;13760;52.588;13.406;2023-04-24T05:58:11;12.70;99.90
25963;DHT22;13760;52.588;13.406;2023-04-24T06:00:40;12.70;99.90
25963;DHT22;13760;52.588;13.406;2023-04-24T06:03:08;12.70;99.90
25963;DHT22;13760;52.588;13.406;2023-04-24T06:05:34;12.70;99.90
25963;DHT22;13760;52.588;13.406;2023-04-24T06:08:00;12.70;99.90
25963;DHT22;13760;52.588;13.406;2023-04-24T06:10:28;12.80;99.90
25963;DHT22;13760;52.588;13.406;2023-04-24T06:12:54;12.80;99.90
25963;DHT22;13760;52.588;13.406;2023-04-24T06:15:21;12.80;99.90
25963;DHT22;13760;52.588;13.406;2023-04-24T06:17:47;12.90;99.90
25963;DHT22;13760;52.588;13.406;2023-04-24T06:20:37;13.00;99.90
25963;DHT22;13760;52.588;13.406;2023-04-24T06:23:03;13.00;99.90
25963;DHT22;13760;52.588;13.406;2023-04-24T06:25:37;13.00;99.90
25963;DHT22;13760;52.588;13.406;2023-04-24T06:28:03;13.10;99.90
25963;DHT22;13760;52.588;13.406;2023-04-24T06:30:29;13.10;99.90
25963;DHT22;13760;52.588;13.406;2023-04-24T06:32:57;13.10;99.90
25963;DHT22;13760;52.588;13.406;2023-04-24T06:35:45;13.20;99.90
25963;DHT22;13760;52.588;13.406;2023-04-24T06:38:16;13.30;99.90
25963;DHT22;13760;52.588;13.406;2023-04-24T06:40:45;13.40;99.90
25963;DHT22;13760;52.588;13.406;2023-04-24T06:43:19;13.50;99.90
25963;DHT22;13760;52.588;13.406;2023-04-24T06:46:21;13.60;99.90
25963;DHT22;13760;52.588;13.406;2023-04-24T06:52:15;13.90;99.90
25963;DHT22;13760;52.588;13.406;2023-04-24T06:55:06;14.10;99.90
25963;DHT22;13760;52.588;13.406;2023-04-24T06:57:57;14.20;99.90
25963;DHT22;13760;52.588;13.406;2023-04-24T07:04:44;14.40;99.90
25963;DHT22;13760;52.588;13.406;2023-04-24T07:07:24;14.60;99.90
25963;DHT22;13760;52.588;13.406;2023-04-24T07:10:15;14.70;99.90
25963;DHT22;13760;52.588;13.406;2023-04-24T07:13:14;14.80;99.90
25963;DHT22;13760;52.588;13.406;2023-04-24T07:15:56;14.80;99.90
25963;DHT22;13760;52.588;13.406;2023-04-24T07:18:44;14.90;99.90
25963;DHT22;13760;52.588;13.406;2023-04-24T07:24:51;15.20;99.90
25963;DHT22;13760;52.588;13.406;2023-04-24T07:27:17;15.50;99.90
25963;DHT22;13760;52.588;13.406;2023-04-24T07:29:52;15.70;99.90
25963;DHT22;13760;52.588;13.406;2023-04-24T07:32:20;16.00;99.90
25963;DHT22;13760;52.588;13.406;2023-04-24T07:34:48;16.20;99.90
25963;DHT22;13760;52.588;13.406;2023-04-24T07:37:23;16.40;99.90
25963;DHT22;13760;52.588;13.406;2023-04-24T07:40:05;16.30;99.90
25963;DHT22;13760;52.588;13.406;2023-04-24T07:42:33;16.30;99.90
25963;DHT22;13760;52.588;13.406;2023-04-24T07:44:59;16.40;99.90
25963;DHT22;13760;52.588;13.406;2023-04-24T07:47:37;16.50;99.90
25963;DHT22;13760;52.588;13.406;2023-04-24T07:50:05;16.70;99.90
25963;DHT22;13760;52.588;13.406;2023-04-24T07:52:31;16.90;99.90
25963;DHT22;13760;52.588;13.406;2023-04-24T07:55:18;17.20;99.90
25963;DHT22;13760;52.588;13.406;2023-04-24T07:57:44;17.30;99.90
25963;DHT22;13760;52.588;13.406;2023-04-24T08:00:13;17.50;99.90
25963;DHT22;13760;52.588;13.406;2023-04-24T08:02:45;17.60;99.90
25963;DHT22;13760;52.588;13.406;2023-04-24T08:05:19;17.80;99.90
25963;DHT22;13760;52.588;13.406;2023-04-24T08:07:48;17.90;99.90
25963;DHT22;13760;52.588;13.406;2023-04-24T08:10:24;18.10;99.90
25963;DHT22;13760;52.588;13.406;2023-04-24T08:13:08;18.20;99.90
25963;DHT22;13760;52.588;13.406;2023-04-24T08:15:37;18.20;99.90
25963;DHT22;13760;52.588;13.406;2023-04-24T08:18:03;18.40;99.90
25963;DHT22;13760;52.588;13.406;2023-04-24T08:20:28;18.40;99.90
25963;DHT22;13760;52.588;13.406;2023-04-24T08:22:54;18.50;99.90
25963;DHT22;13760;52.588;13.406;2023-04-24T08:25:29;18.40;99.90
25963;DHT22;13760;52.588;13.406;2023-04-24T08:27:54;18.40;99.90
25963;DHT22;13760;52.588;13.406;2023-04-24T08:30:20;18.30;99.90
25963;DHT22;13760;52.588;13.406;2023-04-24T08:32:49;18.20;99.90
25963;DHT22;13760;52.588;13.406;2023-04-24T08:35:17;17.90;99.90
25963;DHT22;13760;52.588;13.406;2023-04-24T08:37:44;17.90;99.90
25963;DHT22;13760;52.588;13.406;2023-04-24T08:40:14;17.90;99.90
25963;DHT22;13760;52.588;13.406;2023-04-24T08:42:44;18.00;99.90
25963;DHT22;13760;52.588;13.406;2023-04-24T08:45:12;18.20;99.90
25963;DHT22;13760;52.588;13.406;2023-04-24T08:47:41;18.20;99.90
25963;DHT22;13760;52.588;13.406;2023-04-24T08:50:10;18.10;99.90
25963;DHT22;13760;52.588;13.406;2023-04-24T08:52:51;18.00;99.90
25963;DHT22;13760;52.588;13.406;2023-04-24T08:55:20;18.00;99.90
25963;DHT22;13760;52.588;13.406;2023-04-24T09:07:25;18.30;99.90
25963;DHT22;13760;52.588;13.406;2023-04-24T09:09:53;18.30;99.90
25963;DHT22;13760;52.588;13.406;2023-04-24T09:12:24;18.30;99.90
25963;DHT22;13760;52.588;13.406;2023-04-24T09:14:50;18.20;99.90
25963;DHT22;13760;52.588;13.406;2023-04-24T09:17:25;18.10;99.90
25963;DHT22;13760;52.588;13.406;2023-04-24T09:20:09;18.00;99.90
25963;DHT22;13760;52.588;13.406;2023-04-24T09:22:36;17.90;99.90
25963;DHT22;13760;52.588;13.406;2023-04-24T09:25:07;17.80;99.90
25963;DHT22;13760;52.588;13.406;2023-04-24T09:27:33;17.70;99.90
25963;DHT22;13760;52.588;13.406;2023-04-24T09:30:00;17.70;99.90
25963;DHT22;13760;52.588;13.406;2023-04-24T09:32:28;17.70;99.90
25963;DHT22;13760;52.588;13.406;2023-04-24T09:35:14;17.70;99.90
25963;DHT22;13760;52.588;13.406;2023-04-24T09:37:47;17.70;99.90
25963;DHT22;13760;52.588;13.406;2023-04-24T09:40:20;17.70;99.90
25963;DHT22;13760;52.588;13.406;2023-04-24T09:42:50;17.70;99.90
25963;DHT22;13760;52.588;13.406;2023-04-24T09:45:16;17.60;99.90
25963;DHT22;13760;52.588;13.406;2023-04-24T09:47:42;17.50;99.90
25963;DHT22;13760;52.588;13.406;2023-04-24T09:50:16;17.50;99.90
25963;DHT22;13760;52.588;13.406;2023-04-24T09:52:43;17.40;99.90
25963;DHT22;13760;52.588;13.406;2023-04-24T09:55:18;17.50;99.90
25963;DHT22;13760;52.588;13.406;2023-04-24T09:57:48;17.50;99.90
25963;DHT22;13760;52.588;13.406;2023-04-24T10:00:27;17.40;99.90
25963;DHT22;13760;52.588;13.406;2023-04-24T10:03:01;17.30;99.90
25963;DHT22;13760;52.588;13.406;2023-04-24T10:08:08;17.20;99.90
25963;DHT22;13760;52.588;13.406;2023-04-24T10:10:42;17.30;99.90
25963;DHT22;13760;52.588;13.406;2023-04-24T10:13:13;17.50;99.90
25963;DHT22;13760;52.588;13.406;2023-04-24T10:15:40;17.60;99.90
25963;DHT22;13760;52.588;13.406;2023-04-24T10:18:07;17.80;99.90
25963;DHT22;13760;52.588;13.406;2023-04-24T10:20:34;18.10;99.90
25963;DHT22;13760;52.588;13.406;2023-04-24T10:23:00;18.50;99.90
25963;DHT22;13760;52.588;13.406;2023-04-24T10:25:28;18.70;99.90
25963;DHT22;13760;52.588;13.406;2023-04-24T10:27:55;18.90;99.90
25963;DHT22;13760;52.588;13.406;2023-04-24T10:30:40;18.90;99.90
25963;DHT22;13760;52.588;13.406;2023-04-24T10:33:08;18.80;99.90
25963;DHT22;13760;52.588;13.406;2023-04-24T10:35:37;18.70;99.90
25963;DHT22;13760;52.588;13.406;2023-04-24T10:38:27;18.60;99.90
25963;DHT22;13760;52.588;13.406;2023-04-24T10:41:13;18.30;99.90
25963;DHT22;13760;52.588;13.406;2023-04-24T10:43:45;18.10;99.90
25963;DHT22;13760;52.588;13.406;2023-04-24T10:46:19;17.80;99.90
25963;DHT22;13760;52.588;13.406;2023-04-24T10:48:56;17.60;99.90
25963;DHT22;13760;52.588;13.406;2023-04-24T10:51:24;17.50;99.90
25963;DHT22;13760;52.588;13.406;2023-04-24T10:53:50;17.40;99.90
25963;DHT22;13760;52.588;13.406;2023-04-24T10:56:17;17.20;99.90
25963;DHT22;13760;52.588;13.406;2023-04-24T10:58:44;17.10;99.90
25963;DHT22;13760;52.588;13.406;2023-04-24T11:01:24;17.00;99.90
25963;DHT22;13760;52.588;13.406;2023-04-24T11:03:54;17.00;99.90
25963;DHT22;13760;52.588;13.406;2023-04-24T11:06:31;17.00;99.90
25963;DHT22;13760;52.588;13.406;2023-04-24T11:09:10;17.20;99.90
25963;DHT22;13760;52.588;13.406;2023-04-24T11:11:48;17.40;99.90
25963;DHT22;13760;52.588;13.406;2023-04-24T11:14:16;17.70;99.90
25963;DHT22;13760;52.588;13.406;2023-04-24T11:16:51;18.10;99.90
25963;DHT22;13760;52.588;13.406;2023-04-24T11:19:21;18.20;99.90
25963;DHT22;13760;52.588;13.406;2023-04-24T11:21:55;18.30;99.90
25963;DHT22;13760;52.588;13.406;2023-04-24T11:29:24;18.50;99.90
25963;DHT22;13760;52.588;13.406;2023-04-24T11:34:40;18.80;99.90
25963;DHT22;13760;52.588;13.406;2023-04-24T11:37:06;18.70;99.90
25963;DHT22;13760;52.588;13.406;2023-04-24T11:39:36;18.50;99.90
25963;DHT22;13760;52.588;13.406;2023-04-24T11:42:05;18.30;99.90
25963;DHT22;13760;52.588;13.406;2023-04-24T11:44:33;18.20;99.90
25963;DHT22;13760;52.588;13.406;2023-04-24T11:46:59;17.70;99.90
25963;DHT22;13760;52.588;13.406;2023-04-24T11:49:28;17.00;99.90
25963;DHT22;13760;52.588;13.406;2023-04-24T11:51:57;16.10;99.90
25963;DHT22;13760;52.588;13.406;2023-04-24T11:54:23;15.40;99.90
25963;DHT22;13760;52.588;13.406;2023-04-24T11:56:51;15.00;99.90
25963;DHT22;13760;52.588;13.406;2023-04-24T11:59:19;14.50;99.90
25963;DHT22;13760;52.588;13.406;2023-04-24T12:01:49;14.10;99.90
25963;DHT22;13760;52.588;13.406;2023-04-24T12:04:20;13.90;99.90
25963;DHT22;13760;52.588;13.406;2023-04-24T12:06:59;13.80;99.90
25963;DHT22;13760;52.588;13.406;2023-04-24T12:09:25;14.00;99.90
25963;DHT22;13760;52.588;13.406;2023-04-24T12:11:55;14.30;99.90
25963;DHT22;13760;52.588;13.406;2023-04-24T12:14:22;14.60;99.90
25963;DHT22;13760;52.588;13.406;2023-04-24T12:16:50;15.00;99.90
25963;DHT22;13760;52.588;13.406;2023-04-24T12:19:22;15.10;99.90
25963;DHT22;13760;52.588;13.406;2023-04-24T12:22:01;15.40;99.90
25963;DHT22;13760;52.588;13.406;2023-04-24T12:24:27;15.70;99.90
25963;DHT22;13760;52.588;13.406;2023-04-24T12:27:04;15.90;99.90
25963;DHT22;13760;52.588;13.406;2023-04-24T12:29:30;16.00;99.90
25963;DHT22;13760;52.588;13.406;2023-04-24T12:31:55;16.10;99.90
25963;DHT22;13760;52.588;13.406;2023-04-24T12:34:23;16.20;99.90
25963;DHT22;13760;52.588;13.406;2023-04-24T12:36:50;16.40;99.90
25963;DHT22;13760;52.588;13.406;2023-04-24T12:39:25;16.50;99.90
25963;DHT22;13760;52.588;13.406;2023-04-24T12:42:12;16.70;99.90
25963;DHT22;13760;52.588;13.406;2023-04-24T12:44:40;17.00;99.90
25963;DHT22;13760;52.588;13.406;2023-04-24T12:47:06;17.30;99.90
25963;DHT22;13760;52.588;13.406;2023-04-24T12:49:32;17.40;99.90
25963;DHT22;13760;52.588;13.406;2023-04-24T12:51:58;17.10;99.90
25963;DHT22;13760;52.588;13.406;2023-04-24T12:54:24;16.90;99.90
25963;DHT22;13760;52.588;13.406;2023-04-24T12:56:49;16.70;99.90
25963;DHT22;13760;52.588;13.406;2023-04-24T12:59:15;16.40;99.90
25963;DHT22;13760;52.588;13.406;2023-04-24T13:01:41;16.10;99.90
25963;DHT22;13760;52.588;13.406;2023-04-24T13:04:07;16.10;99.90
25963;DHT22;13760;52.588;13.406;2023-04-24T13:06:35;15.90;99.90
25963;DHT22;13760;52.588;13.406;2023-04-24T13:09:01;16.00;99.90
25963;DHT22;13760;52.588;13.406;2023-04-24T13:11:26;16.40;99.90
25963;DHT22;13760;52.588;13.406;2023-04-24T13:13:52;16.80;99.90
25963;DHT22;13760;52.588;13.406;2023-04-24T13:16:17;17.10;99.90
25963;DHT22;13760;52.588;13.406;2023-04-24T13:18:43;17.40;99.90
25963;DHT22;13760;52.588;13.406;2023-04-24T13:21:08;17.50;99.90
25963;DHT22;13760;52.588;13.406;2023-04-24T13:23:34;17.20;99.90
25963;DHT22;13760;52.588;13.406;2023-04-24T13:26:00;17.20;99.90
25963;DHT22;13760;52.588;13.406;2023-04-24T13:28:26;17.20;99.90
25963;DHT22;13760;52.588;13.406;2023-04-24T13:30:52;17.40;99.90
25963;DHT22;13760;52.588;13.406;2023-04-24T13:33:17;17.70;99.90
25963;DHT22;13760;52.588;13.406;2023-04-24T13:35:43;17.80;99.90
25963;DHT22;13760;52.588;13.406;2023-04-24T13:38:08;17.80;99.90
25963;DHT22;13760;52.588;13.406;2023-04-24T13:40:34;17.60;99.90
25963;DHT22;13760;52.588;13.406;2023-04-24T13:43:00;17.50;99.90
25963;DHT22;13760;52.588;13.406;2023-04-24T13:45:26;17.70;99.90
25963;DHT22;13760;52.588;13.406;2023-04-24T13:47:53;17.90;99.90
25963;DHT22;13760;52.588;13.406;2023-04-24T13:50:22;18.00;99.90
25963;DHT22;13760;52.588;13.406;2023-04-24T13:52:48;17.90;99.90
25963;DHT22;13760;52.588;13.406;2023-04-24T13:55:14;17.80;99.90
25963;DHT22;13760;52.588;13.406;2023-04-24T13:57:39;17.80;99.90
25963;DHT22;13760;52.588;13.406;2023-04-24T14:00:06;17.90;99.90
25963;DHT22;13760;52.588;13.406;2023-04-24T14:02:31;17.90;99.90
25963;DHT22;13760;52.588;13.406;2023-04-24T14:04:57;17.80;99.90
25963;DHT22;13760;52.588;13.406;2023-04-24T14:07:23;18.00;99.90
25963;DHT22;13760;52.588;13.406;2023-04-24T14:09:48;18.00;99.90
25963;DHT22;13760;52.588;13.406;2023-04-24T14:12:15;18.00;99.90
25963;DHT22;13760;52.588;13.406;2023-04-24T14:14:42;17.90;99.90
25963;DHT22;13760;52.588;13.406;2023-04-24T14:17:07;17.80;99.90
25963;DHT22;13760;52.588;13.406;2023-04-24T14:19:33;17.80;99.90
25963;DHT22;13760;52.588;13.406;2023-04-24T14:21:59;17.80;99.90
25963;DHT22;13760;52.588;13.406;2023-04-24T14:24:24;17.80;99.90
25963;DHT22;13760;52.588;13.406;2023-04-24T14:26:50;17.70;99.90
25963;DHT22;13760;52.588;13.406;2023-04-24T14:29:15;17.50;99.90
25963;DHT22;13760;52.588;13.406;2023-04-24T14:31:42;17.40;99.90
25963;DHT22;13760;52.588;13.406;2023-04-24T14:34:08;17.40;99.90
25963;DHT22;13760;52.588;13.406;2023-04-24T14:36:34;17.50;99.90
25963;DHT22;13760;52.588;13.406;2023-04-24T14:39:05;17.50;99.90
25963;DHT22;13760;52.588;13.406;2023-04-24T14:41:32;17.50;99.90
25963;DHT22;13760;52.588;13.406;2023-04-24T14:44:04;17.40;98.10
25963;DHT22;13760;52.588;13.406;2023-04-24T14:46:30;17.20;97.10
25963;DHT22;13760;52.588;13.406;2023-04-24T14:48:58;17.10;97.40
25963;DHT22;13760;52.588;13.406;2023-04-24T14:51:24;16.90;95.20
25963;DHT22;13760;52.588;13.406;2023-04-24T14:53:50;16.90;97.30
25963;DHT22;13760;52.588;13.406;2023-04-24T14:56:17;16.90;97.50
25963;DHT22;13760;52.588;13.406;2023-04-24T14:58:43;17.00;97.00
25963;DHT22;13760;52.588;13.406;2023-04-24T15:01:08;17.00;94.70
25963;DHT22;13760;52.588;13.406;2023-04-24T15:03:34;16.90;94.20
25963;DHT22;13760;52.588;13.406;2023-04-24T15:05:59;16.90;96.40
25963;DHT22;13760;52.588;13.406;2023-04-24T15:08:26;16.80;95.70
25963;DHT22;13760;52.588;13.406;2023-04-24T15:10:51;16.60;95.70
25963;DHT22;13760;52.588;13.406;2023-04-24T15:13:17;16.50;96.60
25963;DHT22;13760;52.588;13.406;2023-04-24T15:15:45;16.50;95.90
25963;DHT22;13760;52.588;13.406;2023-04-24T15:18:11;16.70;96.30
25963;DHT22;13760;52.588;13.406;2023-04-24T15:20:37;16.70;95.20
25963;DHT22;13760;52.588;13.406;2023-04-24T15:23:05;16.60;96.00
25963;DHT22;13760;52.588;13.406;2023-04-24T15:25:30;16.60;95.80
25963;DHT22;13760;52.588;13.406;2023-04-24T15:27:57;16.50;95.90
25963;DHT22;13760;52.588;13.406;2023-04-24T15:30:24;16.50;97.40
25963;DHT22;13760;52.588;13.406;2023-04-24T15:32:49;16.50;97.10
25963;DHT22;13760;52.588;13.406;2023-04-24T15:35:15;16.50;94.50
25963;DHT22;13760;52.588;13.406;2023-04-24T15:37:41;16.40;96.60
25963;DHT22;13760;52.588;13.406;2023-04-24T15:40:07;16.20;95.40
25963;DHT22;13760;52.588;13.406;2023-04-24T15:42:33;16.10;96.10
25963;DHT22;13760;52.588;13.406;2023-04-24T15:44:59;15.90;94.00
25963;DHT22;13760;52.588;13.406;2023-04-24T15:47:25;15.80;96.40
25963;DHT22;13760;52.588;13.406;2023-04-24T15:49:52;15.70;96.30
25963;DHT22;13760;52.588;13.406;2023-04-24T15:52:18;15.70;96.40